createdAt,value
2023-03-26T00:01:16.593Z,3.90
2023-03-26T00:03:53.434Z,3.85
2023-03-26T00:06:24.986Z,4.93
2023-03-26T00:08:52.586Z,3.90
2023-03-26T00:11:20.903Z,4.53
2023-03-26T00:13:48.282Z,3.90
2023-03-26T00:16:17.080Z,4.20
2023-03-26T00:18:44.626Z,3.95
2023-03-26T00:21:13.894Z,4.28
2023-03-26T00:23:41.438Z,5.30
2023-03-26T00:26:12.867Z,3.03
2023-03-26T00:28:41.522Z,4.38
2023-03-26T00:31:10.261Z,3.92
2023-03-26T00:33:38.204Z,4.18
2023-03-26T00:36:06.941Z,4.60
2023-03-26T00:38:38.715Z,4.50
2023-03-26T00:41:07.575Z,3.90
2023-03-26T00:43:36.215Z,4.50
2023-03-26T00:46:05.067Z,3.53
2023-03-26T00:48:44.437Z,4.85
2023-03-26T00:51:15.269Z,4.32
2023-03-26T00:53:42.884Z,5.18
2023-03-26T00:56:10.325Z,4.53
2023-03-26T00:58:37.915Z,4.43
2023-03-26T01:01:06.909Z,3.28
2023-03-26T01:03:35.477Z,3.88
2023-03-26T01:06:07.972Z,3.92
2023-03-26T01:08:38.254Z,4.60
2023-03-26T01:11:13.797Z,4.32
2023-03-26T01:13:47.922Z,4.10
2023-03-26T01:16:20.319Z,4.07
2023-03-26T01:18:48.637Z,3.60
2023-03-26T01:21:22.567Z,3.72
2023-03-26T01:23:57.217Z,3.58
2023-03-26T01:26:44.693Z,4.03
2023-03-26T01:29:19.566Z,3.83
2023-03-26T01:31:55.972Z,4.00
2023-03-26T01:34:37.380Z,4.10
2023-03-26T01:37:20.843Z,3.97
2023-03-26T01:39:54.237Z,4.25
2023-03-26T01:42:27.206Z,4.68
2023-03-26T01:45:04.297Z,4.45
2023-03-26T01:47:31.894Z,3.50
2023-03-26T01:49:59.107Z,4.70
2023-03-26T01:52:26.586Z,3.90
2023-03-26T01:54:55.043Z,3.90
2023-03-26T01:57:25.481Z,3.95
2023-03-26T02:02:39.017Z,4.30
2023-03-26T02:05:06.461Z,3.92
2023-03-26T02:07:37.966Z,4.03
2023-03-26T02:10:26.630Z,4.43
2023-03-26T02:12:54.256Z,4.50
2023-03-26T02:15:21.878Z,4.57
2023-03-26T02:17:49.657Z,4.43
2023-03-26T02:20:19.009Z,5.90
2023-03-26T02:22:47.198Z,5.25
2023-03-26T02:25:19.012Z,4.95
2023-03-26T02:27:47.686Z,3.63
2023-03-26T02:30:16.543Z,4.30
2023-03-26T02:32:46.420Z,5.43
2023-03-26T02:35:13.724Z,3.92
2023-03-26T02:37:42.146Z,4.63
2023-03-26T02:40:15.017Z,4.70
2023-03-26T02:42:44.948Z,5.80
2023-03-26T02:45:12.171Z,3.80
2023-03-26T02:48:00.892Z,5.18
2023-03-26T02:50:54.601Z,4.57
2023-03-26T02:53:39.308Z,5.30
2023-03-26T02:56:35.194Z,4.55
2023-03-26T02:59:18.281Z,3.63
2023-03-26T03:01:50.413Z,3.70
2023-03-26T03:04:19.535Z,4.28
2023-03-26T03:06:57.370Z,4.07
2023-03-26T03:09:25.507Z,4.20
2023-03-26T03:12:12.734Z,4.00
2023-03-26T03:14:40.896Z,4.15
2023-03-26T03:17:08.144Z,3.72
2023-03-26T03:19:37.482Z,4.30
2023-03-26T03:22:04.688Z,4.22
2023-03-26T03:24:33.990Z,4.22
2023-03-26T03:27:01.960Z,4.78
2023-03-26T03:29:33.950Z,5.20
2023-03-26T03:32:22.504Z,5.57
2023-03-26T03:34:51.256Z,5.95
2023-03-26T03:37:19.862Z,5.70
2023-03-26T03:39:53.654Z,7.75
2023-03-26T03:42:22.723Z,7.05
2023-03-26T03:44:52.693Z,7.20
2023-03-26T03:47:46.240Z,7.93
2023-03-26T03:50:15.494Z,7.30
2023-03-26T03:52:55.870Z,7.35
2023-03-26T03:55:24.180Z,7.45
2023-03-26T04:00:24.389Z,7.88
2023-03-26T04:03:14.237Z,7.93
2023-03-26T04:05:41.980Z,8.35
2023-03-26T04:08:09.253Z,8.52
2023-03-26T04:10:44.736Z,6.57
2023-03-26T04:13:12.828Z,7.38
2023-03-26T04:15:56.364Z,9.18
2023-03-26T04:18:24.247Z,7.82
2023-03-26T04:20:51.442Z,8.55
2023-03-26T04:23:26.670Z,8.40
2023-03-26T04:26:04.000Z,7.53
2023-03-26T04:29:02.812Z,7.15
2023-03-26T04:31:31.794Z,7.40
2023-03-26T04:34:06.586Z,8.25
2023-03-26T04:36:40.680Z,8.57
2023-03-26T04:39:07.887Z,7.63
2023-03-26T04:42:11.589Z,7.57
2023-03-26T04:44:52.261Z,8.15
2023-03-26T04:47:19.880Z,8.80
2023-03-26T04:49:48.342Z,8.35
2023-03-26T04:52:16.774Z,7.75
2023-03-26T04:54:56.151Z,7.43
2023-03-26T04:57:28.702Z,7.28
2023-03-26T05:00:09.614Z,7.38
2023-03-26T05:02:39.968Z,6.70
2023-03-26T05:05:07.359Z,9.80
2023-03-26T05:07:35.938Z,7.60
2023-03-26T05:10:03.627Z,6.55
2023-03-26T05:13:00.007Z,7.70
2023-03-26T05:15:31.146Z,8.18
2023-03-26T05:17:58.334Z,7.45
2023-03-26T05:20:38.818Z,8.75
2023-03-26T05:23:08.167Z,8.20
2023-03-26T05:25:38.041Z,7.90
2023-03-26T05:28:15.163Z,7.55
2023-03-26T05:30:54.594Z,7.03
2023-03-26T05:33:23.902Z,6.80
2023-03-26T05:36:13.423Z,6.18
2023-03-26T05:38:49.795Z,6.50
2023-03-26T05:41:35.831Z,7.60
2023-03-26T05:44:03.000Z,6.93
2023-03-26T05:46:31.343Z,8.13
2023-03-26T05:48:58.969Z,9.57
2023-03-26T05:51:28.667Z,7.47
2023-03-26T05:54:08.584Z,10.35
2023-03-26T05:57:02.038Z,7.32
2023-03-26T05:59:47.674Z,6.70
2023-03-26T06:02:44.420Z,7.93
2023-03-26T06:05:39.224Z,8.55
2023-03-26T06:08:37.186Z,6.95
2023-03-26T06:11:08.071Z,8.77
2023-03-26T06:13:38.132Z,8.13
2023-03-26T06:16:05.775Z,7.90
2023-03-26T06:18:44.439Z,7.43
2023-03-26T06:21:37.892Z,9.20
2023-03-26T06:24:16.471Z,9.00
2023-03-26T06:26:52.273Z,8.70
2023-03-26T06:29:49.662Z,8.27
2023-03-26T06:32:40.357Z,8.40
2023-03-26T06:35:14.679Z,8.48
2023-03-26T06:37:42.795Z,8.93
2023-03-26T06:40:10.299Z,8.45
2023-03-26T06:43:08.088Z,9.10
2023-03-26T06:45:57.573Z,9.52
2023-03-26T06:48:40.240Z,9.23
2023-03-26T06:51:25.956Z,8.60
2023-03-26T06:54:11.871Z,9.60
2023-03-26T06:56:47.085Z,9.35
2023-03-26T06:59:34.254Z,8.38
2023-03-26T07:02:20.181Z,9.70
2023-03-26T07:05:06.247Z,8.55
2023-03-26T07:07:52.248Z,8.65
2023-03-26T07:10:19.498Z,8.75
2023-03-26T07:13:12.970Z,9.27
2023-03-26T07:15:58.662Z,9.27
2023-03-26T07:18:31.806Z,9.45
2023-03-26T07:20:59.661Z,8.07
2023-03-26T07:23:30.865Z,8.68
2023-03-26T07:26:27.031Z,9.38
2023-03-26T07:29:17.973Z,9.10
2023-03-26T07:32:06.689Z,9.88
2023-03-26T07:35:12.716Z,10.07
2023-03-26T07:37:56.139Z,9.68
2023-03-26T07:40:41.270Z,8.57
2023-03-26T07:43:46.229Z,9.55
2023-03-26T07:46:37.115Z,9.25
2023-03-26T07:49:31.476Z,10.15
2023-03-26T07:52:19.211Z,10.95
2023-03-26T07:55:19.142Z,10.50
2023-03-26T07:58:20.715Z,9.57
2023-03-26T08:01:18.964Z,11.40
2023-03-26T08:03:46.512Z,9.63
2023-03-26T08:06:37.826Z,11.13
2023-03-26T08:09:34.798Z,10.68
2023-03-26T08:12:05.083Z,10.30
2023-03-26T08:14:33.324Z,10.10
2023-03-26T08:17:06.891Z,8.77
2023-03-26T08:19:40.920Z,10.30
2023-03-26T08:22:17.432Z,7.88
2023-03-26T08:25:03.469Z,8.27
2023-03-26T08:27:37.761Z,7.68
2023-03-26T08:30:25.408Z,8.38
2023-03-26T08:32:56.814Z,8.45
2023-03-26T08:35:24.679Z,8.68
2023-03-26T08:37:51.953Z,9.20
2023-03-26T08:40:28.384Z,9.02
2023-03-26T08:43:07.466Z,9.40
2023-03-26T08:45:44.251Z,8.45
2023-03-26T08:48:36.073Z,8.95
2023-03-26T08:51:41.020Z,6.70
2023-03-26T08:54:27.070Z,8.50
2023-03-26T08:57:12.578Z,8.02
2023-03-26T09:00:02.474Z,8.57
2023-03-26T09:02:46.630Z,6.65
2023-03-26T09:05:33.632Z,7.18
2023-03-26T09:08:19.500Z,7.22
2023-03-26T09:10:52.979Z,7.40
2023-03-26T09:13:24.828Z,7.32
2023-03-26T09:15:57.195Z,6.30
2023-03-26T09:18:37.950Z,7.13
2023-03-26T09:21:26.137Z,7.15
2023-03-26T09:24:12.041Z,6.35
2023-03-26T09:26:42.628Z,7.35
2023-03-26T09:29:22.032Z,7.85
2023-03-26T09:31:58.418Z,7.10
2023-03-26T09:34:37.853Z,7.13
2023-03-26T09:37:24.107Z,6.50
2023-03-26T09:39:51.311Z,7.28
2023-03-26T09:42:24.264Z,5.80
2023-03-26T09:44:57.956Z,7.53
2023-03-26T09:47:32.261Z,6.03
2023-03-26T09:50:18.436Z,6.47
2023-03-26T09:53:04.365Z,6.93
2023-03-26T09:55:42.443Z,6.88
2023-03-26T09:58:28.733Z,6.10
2023-03-26T10:01:05.939Z,7.80
2023-03-26T10:03:42.093Z,5.45
2023-03-26T10:06:26.748Z,6.57
2023-03-26T10:08:56.790Z,5.80
2023-03-26T10:11:26.994Z,4.95
2023-03-26T10:13:57.176Z,3.65
2023-03-26T10:16:50.718Z,4.60
2023-03-26T10:19:18.177Z,3.55
2023-03-26T10:22:04.420Z,4.72
2023-03-26T10:24:37.669Z,5.80
2023-03-26T10:27:10.323Z,4.10
2023-03-26T10:29:44.191Z,4.03
2023-03-26T10:32:23.723Z,4.00
2023-03-26T10:35:19.658Z,3.92
2023-03-26T10:37:58.934Z,3.95
2023-03-26T10:40:31.682Z,4.63
2023-03-26T10:43:12.577Z,4.57
2023-03-26T10:45:41.516Z,3.42
2023-03-26T10:48:36.230Z,3.65
2023-03-26T10:51:05.798Z,4.35
2023-03-26T10:53:36.650Z,4.15
2023-03-26T10:56:24.088Z,3.30
2023-03-26T10:58:51.376Z,3.50
2023-03-26T11:01:34.164Z,3.60
2023-03-26T11:06:28.539Z,2.45
2023-03-26T11:09:02.870Z,4.07
2023-03-26T11:11:38.845Z,4.18
2023-03-26T11:14:15.154Z,3.58
2023-03-26T11:16:54.976Z,3.17
2023-03-26T11:19:22.061Z,5.38
2023-03-26T11:21:56.261Z,3.30
2023-03-26T11:24:39.884Z,3.58
2023-03-26T11:27:26.212Z,3.50
2023-03-26T11:30:13.981Z,3.10
2023-03-26T11:32:49.205Z,5.85
2023-03-26T11:35:16.544Z,4.22
2023-03-26T11:37:57.728Z,3.63
2023-03-26T11:40:28.372Z,4.35
2023-03-26T11:43:04.012Z,3.65
2023-03-26T11:45:37.411Z,3.70
2023-03-26T11:48:09.374Z,3.50
2023-03-26T11:50:41.098Z,3.22
2023-03-26T11:53:13.600Z,3.83
2023-03-26T11:56:19.603Z,3.38
2023-03-26T11:58:55.414Z,3.50
2023-03-26T12:01:32.795Z,3.55
2023-03-26T12:04:13.204Z,3.70
2023-03-26T12:06:50.898Z,5.85
2023-03-26T12:09:19.602Z,3.65
2023-03-26T12:12:08.889Z,3.05
2023-03-26T12:14:36.304Z,2.90
2023-03-26T12:17:06.645Z,2.38
2023-03-26T12:19:39.612Z,2.53
2023-03-26T12:22:07.553Z,2.67
2023-03-26T12:24:37.023Z,3.05
2023-03-26T12:27:22.314Z,2.53
2023-03-26T12:30:12.681Z,2.58
2023-03-26T12:32:46.286Z,2.75
2023-03-26T12:35:21.232Z,3.05
2023-03-26T12:37:48.523Z,5.22
2023-03-26T12:40:28.518Z,4.78
2023-03-26T12:44:54.770Z,2.88
2023-03-26T12:45:45.175Z,3.40
2023-03-26T12:48:34.412Z,4.20
2023-03-26T12:51:05.384Z,3.28
2023-03-26T12:53:53.278Z,2.00
2023-03-26T12:56:22.942Z,4.43
2023-03-26T12:59:08.614Z,2.88
2023-03-26T13:02:02.418Z,2.58
2023-03-26T13:04:36.198Z,2.63
2023-03-26T13:07:10.859Z,2.65
2023-03-26T13:09:47.263Z,2.97
2023-03-26T13:12:40.358Z,2.50
2023-03-26T13:15:17.590Z,4.10
2023-03-26T13:17:51.876Z,2.45
2023-03-26T13:20:22.378Z,2.08
2023-03-26T13:22:56.343Z,2.95
2023-03-26T13:25:23.829Z,2.58
2023-03-26T13:27:51.168Z,2.40
2023-03-26T13:30:36.976Z,2.03
2023-03-26T13:33:07.366Z,1.92
2023-03-26T13:35:40.779Z,2.45
2023-03-26T13:38:18.506Z,3.08
2023-03-26T13:40:45.662Z,1.88
2023-03-26T13:43:31.614Z,2.15
2023-03-26T13:46:08.283Z,2.35
2023-03-26T13:48:51.396Z,2.22
2023-03-26T13:51:20.748Z,2.15
2023-03-26T13:53:51.927Z,2.20
2023-03-26T13:56:24.756Z,2.28
2023-03-26T13:58:56.816Z,2.20
2023-03-26T14:01:34.908Z,2.00
2023-03-26T14:04:02.301Z,2.15
2023-03-26T14:06:35.806Z,2.13
2023-03-26T14:09:11.635Z,1.88
2023-03-26T14:11:44.434Z,2.05
2023-03-26T14:14:14.992Z,2.30
2023-03-26T14:16:48.965Z,2.08
2023-03-26T14:19:22.612Z,2.30
2023-03-26T14:22:09.696Z,2.05
2023-03-26T14:24:46.144Z,1.75
2023-03-26T14:27:20.090Z,2.05
2023-03-26T14:29:56.352Z,2.45
2023-03-26T14:32:40.811Z,1.50
2023-03-26T14:35:24.477Z,2.38
2023-03-26T14:37:58.772Z,2.60
2023-03-26T14:40:26.185Z,1.75
2023-03-26T14:42:55.977Z,1.92
2023-03-26T14:45:40.106Z,2.05
2023-03-26T14:48:09.713Z,1.95
2023-03-26T14:50:54.892Z,1.95
2023-03-26T14:53:34.318Z,1.85
2023-03-26T14:56:15.082Z,2.10
2023-03-26T14:58:51.523Z,2.58
2023-03-26T15:01:29.846Z,3.28
2023-03-26T15:04:15.919Z,2.28
2023-03-26T15:06:55.376Z,2.50
2023-03-26T15:09:22.474Z,2.03
2023-03-26T15:11:52.552Z,1.95
2023-03-26T15:14:46.110Z,2.10
2023-03-26T15:17:22.546Z,2.17
2023-03-26T15:22:32.391Z,2.22
2023-03-26T15:25:18.552Z,1.80
2023-03-26T15:28:04.741Z,2.25
2023-03-26T15:30:50.719Z,2.58
2023-03-26T15:33:18.196Z,2.25
2023-03-26T15:35:59.369Z,2.28
2023-03-26T15:38:46.578Z,2.63
2023-03-26T15:41:34.665Z,1.80
2023-03-26T15:44:23.438Z,2.67
2023-03-26T15:46:55.749Z,2.67
2023-03-26T15:49:23.072Z,3.40
2023-03-26T15:51:59.588Z,3.25
2023-03-26T15:56:54.686Z,2.33
2023-03-26T15:59:43.092Z,2.67
2023-03-26T16:02:30.028Z,2.90
2023-03-26T16:05:03.357Z,3.38
2023-03-26T16:07:39.887Z,2.80
2023-03-26T16:12:46.402Z,2.80
2023-03-26T16:15:25.868Z,1.98
2023-03-26T16:18:09.003Z,2.45
2023-03-26T16:20:50.766Z,2.40
2023-03-26T16:23:34.520Z,2.10
2023-03-26T16:26:34.154Z,2.50
2023-03-26T16:29:02.755Z,1.80
2023-03-26T16:31:38.760Z,2.15
2023-03-26T16:34:09.252Z,2.15
2023-03-26T16:36:43.079Z,2.72
2023-03-26T16:39:18.771Z,2.15
2023-03-26T16:41:49.890Z,3.30
2023-03-26T16:44:26.407Z,2.58
2023-03-26T16:46:53.798Z,2.58
2023-03-26T16:49:41.618Z,3.05
2023-03-26T16:52:21.281Z,2.60
2023-03-26T16:55:07.258Z,2.42
2023-03-26T16:57:42.486Z,2.60
2023-03-26T17:00:25.110Z,3.75
2023-03-26T17:03:01.470Z,2.47
2023-03-26T17:05:43.900Z,2.45
2023-03-26T17:08:36.776Z,3.97
2023-03-26T17:11:04.694Z,2.50
2023-03-26T17:13:36.257Z,1.63
2023-03-26T17:16:18.644Z,2.10
2023-03-26T17:19:18.470Z,3.17
2023-03-26T17:22:04.599Z,4.45
2023-03-26T17:24:40.717Z,2.25
2023-03-26T17:27:39.184Z,3.10
2023-03-26T17:30:25.818Z,2.95
2023-03-26T17:32:55.933Z,4.15
2023-03-26T17:35:43.804Z,3.80
2023-03-26T17:38:29.425Z,4.10
2023-03-26T17:41:00.998Z,2.40
2023-03-26T17:43:36.386Z,4.18
2023-03-26T17:46:05.246Z,2.63
2023-03-26T17:48:35.665Z,2.50
2023-03-26T17:51:21.813Z,3.15
2023-03-26T17:53:49.382Z,3.72
2023-03-26T17:56:18.893Z,2.83
2023-03-26T17:58:52.743Z,1.70
2023-03-26T18:01:35.231Z,1.60
2023-03-26T18:04:03.595Z,1.90
2023-03-26T18:06:44.185Z,1.63
2023-03-26T18:09:17.770Z,2.28
2023-03-26T18:11:57.830Z,1.80
2023-03-26T18:14:25.098Z,2.58
2023-03-26T18:16:54.172Z,2.60
2023-03-26T18:19:23.383Z,2.30
2023-03-26T18:21:52.099Z,2.67
2023-03-26T18:24:22.080Z,1.83
2023-03-26T18:26:52.869Z,3.17
2023-03-26T18:29:30.504Z,2.00
2023-03-26T18:32:00.625Z,2.47
2023-03-26T18:34:31.100Z,3.05
2023-03-26T18:37:10.894Z,2.95
2023-03-26T18:39:38.656Z,1.95
2023-03-26T18:42:06.643Z,2.58
2023-03-26T18:44:36.762Z,2.33
2023-03-26T18:47:09.687Z,3.30
2023-03-26T18:49:37.889Z,2.38
2023-03-26T18:52:05.220Z,1.75
2023-03-26T18:54:35.402Z,2.40
2023-03-26T18:57:15.341Z,2.00
2023-03-26T18:59:45.211Z,1.92
2023-03-26T19:02:14.410Z,2.08
2023-03-26T19:04:46.189Z,2.65
2023-03-26T19:07:15.506Z,2.28
2023-03-26T19:09:43.556Z,1.98
2023-03-26T19:12:24.509Z,2.00
2023-03-26T19:15:27.617Z,2.50
2023-03-26T19:17:59.782Z,1.38
2023-03-26T19:20:29.531Z,2.03
2023-03-26T19:22:57.885Z,1.67
2023-03-26T19:25:44.541Z,1.63
2023-03-26T19:28:16.161Z,2.00
2023-03-26T19:30:44.966Z,1.55
2023-03-26T19:33:18.417Z,1.60
2023-03-26T19:35:47.496Z,2.67
2023-03-26T19:38:22.248Z,2.20
2023-03-26T19:40:50.471Z,1.95
2023-03-26T19:43:17.996Z,2.13
2023-03-26T19:46:00.318Z,1.92
2023-03-26T19:48:45.646Z,2.47
2023-03-26T19:51:20.008Z,2.50
2023-03-26T19:53:53.777Z,3.72
2023-03-26T19:56:22.219Z,1.63
2023-03-26T19:58:50.387Z,1.75
2023-03-26T20:01:22.379Z,2.50
2023-03-26T20:03:52.796Z,1.60
2023-03-26T20:08:52.257Z,2.60
2023-03-26T20:11:21.068Z,3.33
2023-03-26T20:13:50.773Z,1.60
2023-03-26T20:16:26.897Z,2.38
2023-03-26T20:18:57.849Z,2.05
2023-03-26T20:21:28.682Z,2.50
2023-03-26T20:23:56.689Z,2.35
2023-03-26T20:26:25.342Z,2.22
2023-03-26T20:28:53.238Z,2.50
2023-03-26T20:31:23.391Z,2.70
2023-03-26T20:33:54.021Z,2.85
2023-03-26T20:36:33.803Z,2.00
2023-03-26T20:39:02.038Z,1.52
2023-03-26T20:41:29.270Z,2.13
2023-03-26T20:43:57.035Z,1.70
2023-03-26T20:46:31.381Z,1.33
2023-03-26T20:48:59.709Z,2.45
2023-03-26T20:51:28.488Z,1.52
2023-03-26T20:53:56.318Z,2.70
2023-03-26T20:56:23.797Z,1.60
2023-03-26T20:59:09.943Z,2.60
2023-03-26T21:01:38.430Z,1.70
2023-03-26T21:04:06.337Z,1.95
2023-03-26T21:06:33.554Z,2.22
2023-03-26T21:09:01.904Z,1.65
2023-03-26T21:11:39.757Z,1.98
2023-03-26T21:14:26.314Z,1.65
2023-03-26T21:16:54.107Z,1.58
2023-03-26T21:19:21.542Z,2.00
2023-03-26T21:21:52.572Z,1.73
2023-03-26T21:25:05.641Z,1.27
2023-03-26T21:27:39.212Z,2.30
2023-03-26T21:30:14.730Z,2.13
2023-03-26T21:32:43.463Z,1.50
2023-03-26T21:35:11.186Z,1.30
2023-03-26T21:37:38.534Z,2.67
2023-03-26T21:40:17.153Z,2.38
2023-03-26T21:42:49.652Z,2.00
2023-03-26T21:45:17.391Z,1.90
2023-03-26T21:47:45.519Z,1.25
2023-03-26T21:50:14.220Z,1.77
2023-03-26T21:52:48.365Z,1.80
2023-03-26T21:55:20.339Z,2.60
2023-03-26T21:57:59.955Z,1.40
2023-03-26T22:00:41.103Z,2.08
2023-03-26T22:03:18.668Z,1.13
2023-03-26T22:06:12.137Z,2.13
2023-03-26T22:08:40.670Z,2.00
2023-03-26T22:11:09.690Z,2.20
2023-03-26T22:13:38.423Z,2.50
2023-03-26T22:16:07.007Z,1.63
2023-03-26T22:18:34.604Z,2.45
2023-03-26T22:21:01.853Z,2.25
2023-03-26T22:23:36.053Z,2.40
2023-03-26T22:26:04.037Z,1.95
2023-03-26T22:28:31.226Z,1.52
2023-03-26T22:30:58.991Z,2.72
2023-03-26T22:33:26.740Z,1.40
2023-03-26T22:35:56.103Z,2.38
2023-03-26T22:38:23.604Z,2.30
2023-03-26T22:40:57.900Z,2.17
2023-03-26T22:43:25.353Z,1.60
2023-03-26T22:45:54.130Z,2.80
2023-03-26T22:48:22.339Z,2.00
2023-03-26T22:51:06.269Z,2.08
2023-03-26T22:53:33.469Z,2.33
2023-03-26T22:56:00.925Z,2.25
2023-03-26T22:58:28.465Z,2.28
2023-03-26T23:01:08.311Z,2.40
2023-03-26T23:03:36.933Z,1.50
2023-03-26T23:06:06.520Z,2.10
2023-03-26T23:08:34.544Z,3.17
2023-03-26T23:11:02.300Z,2.25
2023-03-26T23:13:29.535Z,2.45
2023-03-26T23:15:57.173Z,3.22
2023-03-26T23:18:24.639Z,2.72
2023-03-26T23:20:56.038Z,3.03
2023-03-26T23:23:27.432Z,4.03
2023-03-26T23:25:55.066Z,3.60
2023-03-26T23:28:23.968Z,3.40
2023-03-26T23:30:55.607Z,3.78
2023-03-26T23:33:24.161Z,2.40
2023-03-26T23:35:53.159Z,2.70
2023-03-26T23:38:22.124Z,2.28
2023-03-26T23:40:52.813Z,2.15
2023-03-26T23:43:24.979Z,2.50
2023-03-26T23:45:52.163Z,2.40
2023-03-26T23:48:23.302Z,2.45
2023-03-26T23:50:52.240Z,2.65
2023-03-26T23:53:31.274Z,2.13
2023-03-26T23:55:58.676Z,2.70
2023-03-26T23:58:30.046Z,1.67
